ADDS METAR Data INFO
IDs: Format: Raw Decoded Include TAF

Data at: 2038 UTC 22 Feb 2018

KMAW 222035Z AUTO 00000KT 10SM OVC005 08/07 A3034 RMK AO2
KMAW 222015Z AUTO 00000KT 10SM OVC005 08/06 A3034 RMK AO2
KMAW 221955Z AUTO 07005KT 10SM OVC005 08/06 A3035 RMK AO2
KMAW 221935Z AUTO 07004KT 10SM OVC005 07/06 A3035 RMK AO2
KMAW 221915Z AUTO 07005KT 10SM OVC005 07/06 A3035 RMK AO2
KMAW 221855Z AUTO 06005KT 10SM OVC005 07/06 A3036 RMK AO2
KMAW 221835Z AUTO 06007KT 10SM OVC005 07/06 A3037 RMK AO2
KMAW 221815Z AUTO 05005KT 10SM OVC005 07/05 A3039 RMK AO2
KMAW 221755Z AUTO 02003KT 10SM OVC005 07/05 A3040 RMK AO2
KMAW 221735Z AUTO 01005KT 10SM OVC005 06/05 A3040 RMK AO2
KMAW 221715Z AUTO 36007KT 10SM OVC005 06/05 A3040 RMK AO2
KMAW 221655Z AUTO 02006KT 10SM OVC005 06/05 A3040 RMK AO2
KMAW 221635Z AUTO 02007KT 10SM OVC005 06/04 A3040 RMK AO2
KMAW 221615Z AUTO 02007KT 10SM OVC005 05/04 A3040 RMK AO2
KMAW 221555Z AUTO 36007KT 10SM OVC005 05/03 A3040 RMK AO2
KMAW 221535Z AUTO 01007KT 7SM OVC005 05/03 A3040 RMK AO2 LTG DSNT S
KMAW 221515Z AUTO 36007KT 4SM BR OVC005 05/03 A3039 RMK AO2
KMAW 221455Z AUTO 01007KT 3SM BR OVC005 05/03 A3039 RMK AO2
KMAW 221435Z AUTO 36007KT 2 1/2SM BR OVC005 04/03 A3038 RMK AO2
KMAW 221415Z AUTO 35007KT 3SM BR OVC005 04/03 A3037 RMK AO2 LTG DSNT S
KMAW 221355Z AUTO 35008KT 3SM BR OVC007 04/03 A3037 RMK AO2
KMAW 221335Z AUTO 36009KT 4SM BR OVC007 04/03 A3036 RMK AO2
KMAW 221315Z AUTO 36008KT 4SM BR OVC007 04/03 A3035 RMK AO2
KMAW 221255Z AUTO 01009KT 3SM BR OVC007 05/03 A3034 RMK AO2
KMAW 221235Z AUTO 01006KT 4SM BR OVC007 05/03 A3034 RMK AO2 LTG DSNT S
KMAW 221215Z AUTO 01008KT 3SM BR OVC005 05/03 A3032 RMK AO2
KMAW 221155Z AUTO 36008KT 3SM BR OVC005 05/03 A3032 RMK AO2 P0001
KMAW 221135Z AUTO 35008KT 3SM BR BKN008 OVC013 05/03 A3031 RMK AO2
KMAW 221115Z AUTO 35008KT 4SM -DZ OVC007 05/03 A3032 RMK AO2
KMAW 221055Z AUTO 35008KT 3SM BR OVC009 05/03 A3032 RMK AO2
KMAW 221035Z AUTO 34008KT 10SM OVC009 05/03 A3031 RMK AO2
KMAW 221015Z AUTO 33008KT 10SM OVC007 05/03 A3031 RMK AO2
KMAW 220955Z AUTO 35009KT 10SM OVC007 05/03 A3028 RMK AO2 P0001 LTG DSNT S
KMAW 220935Z AUTO 32012KT 10SM OVC007 05/03 A3030 RMK AO2 P0001
KMAW 220915Z AUTO 08013G18KT 10SM OVC005 04/03 A3018 RMK AO2 P0001
KMAW 220855Z AUTO 09011KT 10SM OVC005 04/03 A3021 RMK AO2 P0015
KMAW 220835Z AUTO 06007G19KT 10SM OVC005 03/02 A3026 RMK AO2 P0014
KMAW 220815Z AUTO 08010KT 2 1/2SM -RA OVC007 03/02 A3025 RMK AO2 P0012
KMAW 220755Z AUTO 33005KT 2SM +RA OVC007 03/02 A3036 RMK AO2 P0010 LTG DSNT SW
KMAW 220735Z AUTO 01011KT 10SM DZ OVC007 03/02 A3034 RMK AO2 P0002
KMAW 220715Z AUTO 01012G18KT 7SM -RA OVC007 03/02 A3034 RMK AO2 P0001
KMAW 220655Z AUTO 02014KT 7SM RA OVC007 03/02 A3034 RMK AO2 P0011
KMAW 220635Z AUTO 02013KT 4SM -RA OVC007 03/02 A3035 RMK AO2 P0009
KMAW 220615Z AUTO 03013G17KT 4SM -RA OVC009 03/02 A3036 RMK AO2 P0004
KMAW 220555Z AUTO 02012G19KT 4SM -RA OVC009 03/02 A3037 RMK AO2 P0012
KMAW 220535Z AUTO 01012G20KT 7SM -RA OVC009 03/01 A3037 RMK AO2 P0009
KMAW 220515Z AUTO 02016G19KT 4SM RA OVC009 02/01 A3038 RMK AO2 P0006
KMAW 220455Z AUTO 36011KT 2SM -SN OVC009 02/01 A3042 RMK AO2 P0020
KMAW 220435Z AUTO 01015G19KT 3SM UP OVC009 02/01 A3040 RMK AO2 P0009
KMAW 220115Z AUTO 01011KT 10SM RA OVC007 03/02 A3041 RMK AO2 P0001
KMAW 220055Z AUTO 03010KT 10SM DZ OVC007 03/02 A3040 RMK AO2 P0006
KMAW 220035Z AUTO 04008G14KT 5SM -RA OVC007 03/02 A3041 RMK AO2 P0004
KMAW 220015Z AUTO 05010G15KT 7SM RA OVC007 03/01 A3040 RMK AO2 P0002
KMAW 212355Z AUTO 04011G19KT 5SM -RA OVC007 03/01 A3042 RMK AO2 P0006
KMAW 212335Z AUTO 06010G21KT 7SM RA OVC007 02/01 A3041 RMK AO2 P0004
KMAW 212315Z AUTO 04017G21KT 7SM -RA OVC007 02/01 A3042 RMK AO2 P0002
KMAW 212255Z AUTO 03014G18KT 7SM -RA OVC009 02/01 A3041 RMK AO2 P0005
KMAW 212235Z AUTO 02011KT 5SM -RA OVC011 02/01 A3044 RMK AO2 P0004
KMAW 212215Z AUTO 02014G17KT 4SM -RA OVC011 02/01 A3045 RMK AO2 P0002
KMAW 212155Z AUTO 01011G15KT 4SM -RA OVC011 03/01 A3045 RMK AO2 P0003
KMAW 212135Z AUTO 01009KT 5SM RA OVC011 03/01 A3046 RMK AO2 P0001
KMAW 212115Z AUTO 34009G15KT 10SM RA OVC011 03/01 A3044 RMK AO2
KMAW 212055Z AUTO 36014KT 10SM RA OVC011 03/01 A3045 RMK AO2 P0002
KMAW 212035Z AUTO 36010KT 10SM -RA OVC011 03/02 A3045 RMK AO2 P0001
KMAW 212015Z AUTO 36013G16KT 10SM RA OVC011 04/02 A3045 RMK AO2
KMAW 211955Z AUTO 01009KT 10SM DZ OVC009 04/02 A3045 RMK AO2 P0002
KMAW 211935Z AUTO 01013KT 10SM -RA OVC009 04/02 A3044 RMK AO2 P0002
KMAW 211915Z AUTO 02010KT 10SM RA OVC011 04/02 A3043 RMK AO2 P0001
KMAW 211855Z AUTO 02012KT 10SM -RA OVC011 04/02 A3044 RMK AO2 P0004
KMAW 211835Z AUTO 01015KT 10SM -RA OVC011 04/02 A3045 RMK AO2 P0002
KMAW 211815Z AUTO 01010KT 10SM -RA OVC009 04/02 A3047 RMK AO2 P0001
KMAW 211755Z AUTO 04010KT 10SM -RA OVC009 04/02 A3044 RMK AO2 P0002
KMAW 211735Z AUTO 03012KT 10SM -RA OVC009 04/02 A3044 RMK AO2 P0001
KMAW 211715Z AUTO 03014KT 10SM DZ OVC009 04/02 A3043 RMK AO2 P0001
KMAW 211655Z AUTO 02015KT 10SM -RA OVC009 04/02 A3044 RMK AO2 P0002
KMAW 211635Z AUTO 03013G17KT 10SM -DZ OVC009 04/02 A3044 RMK AO2 P0002
KMAW 211615Z AUTO 03011G18KT 10SM -RA OVC011 04/02 A3046 RMK AO2 P0001
KMAW 211555Z AUTO 02015G19KT 7SM -RA OVC011 04/02 A3045 RMK AO2 P0003
KMAW 211535Z AUTO 03013G16KT 10SM DZ OVC009 03/02 A3046 RMK AO2 P0002
KMAW 211515Z AUTO 02012KT 10SM RA OVC011 04/02 A3045 RMK AO2 P0001
KMAW 211455Z AUTO 02011KT 5SM -RA OVC011 04/02 A3044 RMK AO2 P0002
KMAW 211435Z AUTO 01010KT 7SM RA OVC009 04/02 A3044 RMK AO2 P0001
KMAW 211415Z AUTO 36011KT 10SM -DZ OVC009 04/02 A3041 RMK AO2
KMAW 211355Z AUTO 35009KT 10SM DZ OVC009 05/02 A3041 RMK AO2 P0003
KMAW 211335Z AUTO 01009KT 10SM -RA OVC011 05/02 A3037 RMK AO2 P0002
KMAW 211315Z AUTO 01012KT 10SM -RA OVC011 05/03 A3037 RMK AO2 P0001